Time;durP1;ratioP1;P1;durP2;ratioP2;P2;SDS_P1;SDS_P2;PMS_P1;PMS_P2;Temp;Humidity;BMP_temperature;BMP_pressure;BME280_temperature;BME280_humidity;BME280_pressure;Samples;Min_cycle;Max_cycle;Signal;HPM_P1;HPM_P2
2023/04/21 00:01:02;;;;;;;3.15;2.33;;;;;;;14.76;57.91;101484.03;5017141;28;20033;-52
2023/04/21 00:03:28;;;;;;;2.45;2.25;;;;;;;14.76;57.94;101478.69;5014370;28;20361;-52
2023/04/21 00:05:57;;;;;;;2.35;2.15;;;;;;;14.76;57.70;101478.69;5022643;28;20507;-52
2023/04/21 00:08:23;;;;;;;3.00;2.65;;;;;;;14.77;57.61;101476.84;5021744;28;20046;-50
2023/04/21 00:10:49;;;;;;;2.60;2.30;;;;;;;14.75;57.75;101468.06;5023591;28;20470;-52
2023/04/21 00:13:14;;;;;;;2.58;2.38;;;;;;;14.76;57.48;101461.75;5015141;28;20121;-50
2023/04/21 00:15:40;;;;;;;2.47;2.15;;;;;;;14.76;57.98;101456.38;5023185;28;20029;-52
2023/04/21 00:18:05;;;;;;;2.90;2.58;;;;;;;14.74;57.49;101448.44;5017118;28;20038;-51
2023/04/21 00:20:31;;;;;;;2.90;2.60;;;;;;;14.75;57.58;101455.50;5022091;28;20083;-52
2023/04/21 00:22:57;;;;;;;2.88;2.67;;;;;;;14.75;57.93;101454.66;5013869;28;20033;-52
2023/04/21 00:25:24;;;;;;;2.65;2.30;;;;;;;14.74;57.66;101447.59;5022645;28;20110;-52
2023/04/21 00:27:49;;;;;;;2.63;2.35;;;;;;;14.74;57.58;101445.75;5023084;28;20120;-51
2023/04/21 00:30:15;;;;;;;2.35;2.15;;;;;;;14.75;57.82;101438.56;5007487;28;20030;-51
2023/04/21 00:32:40;;;;;;;2.20;2.00;;;;;;;14.74;57.93;101429.69;5018412;28;20060;-50
2023/04/21 00:35:06;;;;;;;2.53;2.28;;;;;;;14.73;57.80;101436.00;5031665;28;20037;-52
2023/04/21 00:37:31;;;;;;;2.80;2.50;;;;;;;14.73;57.83;101443.19;5021397;28;20029;-52
2023/04/21 00:39:57;;;;;;;2.92;2.63;;;;;;;14.73;57.58;101430.63;5023568;28;20025;-52
2023/04/21 00:42:23;;;;;;;2.80;2.60;;;;;;;14.73;57.93;101430.63;5022860;28;20119;-51
2023/04/21 00:44:48;;;;;;;2.75;2.55;;;;;;;14.71;57.74;101427.22;5024900;28;20036;-52
2023/04/21 00:47:14;;;;;;;2.53;2.33;;;;;;;14.72;58.07;101423.56;5022991;28;20439;-52
2023/04/21 00:49:39;;;;;;;2.50;2.30;;;;;;;14.72;57.66;101426.25;5021761;28;20064;-51
2023/04/21 00:52:05;;;;;;;3.00;2.67;;;;;;;14.72;57.86;101434.31;5022538;28;20036;-52
2023/04/21 00:54:31;;;;;;;2.22;2.13;;;;;;;14.71;57.82;101429.88;5024804;28;20063;-50
2023/04/21 00:57:00;;;;;;;2.17;1.98;;;;;;;14.72;57.66;101434.31;5026968;28;20471;-52
2023/04/21 00:59:26;;;;;;;2.35;2.17;;;;;;;14.71;58.10;101432.56;5022815;28;20117;-51
2023/04/21 01:01:51;;;;;;;3.33;2.58;;;;;;;14.71;57.99;101424.53;5017808;28;20056;-50
2023/04/21 01:04:17;;;;;;;2.63;2.42;;;;;;;14.71;57.59;101427.22;5023725;28;20036;-52
2023/04/21 01:06:43;;;;;;;3.40;2.28;;;;;;;14.71;58.01;101429.03;5023185;28;20072;-52
2023/04/21 01:09:09;;;;;;;3.03;2.63;;;;;;;14.70;57.92;101425.50;5029261;28;20033;-51
2023/04/21 01:11:34;;;;;;;2.78;2.28;;;;;;;14.70;57.93;101419.28;5019346;28;20025;-51
2023/04/21 01:13:59;;;;;;;3.17;2.63;;;;;;;14.70;57.99;101425.50;5024241;28;20034;-51
2023/04/21 01:16:26;;;;;;;2.25;2.15;;;;;;;14.69;58.08;101417.56;5018361;28;20088;-50
2023/04/21 01:18:52;;;;;;;2.97;2.20;;;;;;;14.69;57.77;101412.22;5004095;28;20087;-49
2023/04/21 01:21:18;;;;;;;2.47;2.00;;;;;;;14.68;57.75;101411.38;5023812;28;20041;-52
2023/04/21 01:23:44;;;;;;;2.50;2.30;;;;;;;14.69;57.86;101407.72;5023785;28;20394;-52
2023/04/21 01:26:10;;;;;;;2.55;2.35;;;;;;;14.68;57.95;101400.66;5021524;28;20018;-51
2023/04/21 01:28:35;;;;;;;2.70;2.50;;;;;;;14.68;57.71;101399.78;5024402;28;20145;-49
2023/04/21 01:31:01;;;;;;;2.33;2.13;;;;;;;14.69;58.05;101413.06;5019600;28;20379;-51
2023/04/21 01:33:27;;;;;;;2.13;2.03;;;;;;;14.68;58.11;101405.13;5023846;28;20025;-52
2023/04/21 01:35:54;;;;;;;2.53;2.33;;;;;;;14.68;57.91;101397.97;5018426;28;20038;-51
2023/04/21 01:38:19;;;;;;;2.45;2.25;;;;;;;14.68;57.63;101402.44;5020258;28;20077;-52
2023/04/21 01:40:49;;;;;;;2.40;2.20;;;;;;;14.68;58.14;101406.00;5011829;28;20029;-52
2023/04/21 01:43:17;;;;;;;2.47;2.28;;;;;;;14.67;57.90;101406.97;5007537;28;20041;-52
2023/04/21 01:45:43;;;;;;;2.38;2.17;;;;;;;14.66;57.93;101400.75;5024807;28;20040;-53
2023/04/21 01:48:08;;;;;;;2.33;2.10;;;;;;;14.67;57.87;101388.19;5018884;28;20113;-51
2023/04/21 01:50:34;;;;;;;2.60;2.40;;;;;;;14.65;58.12;101391.00;5020323;28;20022;-52
2023/04/21 01:52:59;;;;;;;2.40;2.20;;;;;;;14.66;57.86;101384.66;5023700;28;20046;-52
2023/04/21 01:55:24;;;;;;;2.67;2.20;;;;;;;14.66;57.78;101381.16;5018880;28;20072;-52
2023/04/21 01:57:50;;;;;;;2.28;2.08;;;;;;;14.66;58.15;101371.28;5028198;28;20069;-53
2023/04/21 02:00:16;;;;;;;2.25;2.10;;;;;;;14.66;58.04;101373.94;5021380;28;20037;-50
2023/04/21 02:02:41;;;;;;;2.42;2.10;;;;;;;14.66;58.05;101373.94;5022965;28;20037;-51
2023/04/21 02:05:07;;;;;;;2.65;2.42;;;;;;;14.65;57.80;101371.38;5025797;28;20040;-50
2023/04/21 02:07:32;;;;;;;2.58;2.38;;;;;;;14.65;58.17;101374.06;5017157;28;20034;-52
2023/04/21 02:09:58;;;;;;;2.50;2.30;;;;;;;14.65;57.89;101356.16;5024920;28;20037;-52
2023/04/21 02:12:23;;;;;;;2.40;2.10;;;;;;;14.64;57.91;101348.22;5014621;28;20365;-52
2023/04/21 02:14:48;;;;;;;3.33;2.60;;;;;;;14.65;57.78;101347.25;5023124;28;20034;-52
2023/04/21 02:17:14;;;;;;;2.67;2.47;;;;;;;14.64;57.99;101345.53;5019492;28;20379;-52
2023/04/21 02:19:39;;;;;;;2.55;2.17;;;;;;;14.63;57.98;101341.16;5028055;28;20021;-52
2023/04/21 02:22:07;;;;;;;2.53;2.33;;;;;;;14.64;58.10;101354.44;5030607;28;20088;-51
2023/04/21 02:24:33;;;;;;;2.60;2.40;;;;;;;14.63;57.46;101343.84;5023004;28;20029;-52
2023/04/21 02:26:58;;;;;;;2.35;2.15;;;;;;;14.63;57.89;101343.84;5023555;28;20029;-51
2023/04/21 02:29:23;;;;;;;2.35;2.15;;;;;;;14.63;57.68;101333.13;5018667;28;20041;-50
2023/04/21 02:31:49;;;;;;;3.00;2.47;;;;;;;14.63;57.68;101338.47;5015110;28;20034;-52
2023/04/21 02:34:14;;;;;;;2.47;2.28;;;;;;;14.63;58.24;101333.97;5025711;28;20068;-51
2023/04/21 02:36:39;;;;;;;2.70;2.50;;;;;;;14.62;58.02;101337.63;5001897;28;20061;-50
2023/04/21 02:39:05;;;;;;;3.15;2.85;;;;;;;14.64;57.71;101340.16;5029968;28;20033;-50
2023/04/21 02:41:30;;;;;;;2.85;2.58;;;;;;;14.62;57.73;101332.25;5004210;28;20488;-52
2023/04/21 02:43:55;;;;;;;2.65;2.40;;;;;;;14.62;57.99;101337.63;5022305;28;20042;-52
2023/04/21 02:46:21;;;;;;;2.95;2.45;;;;;;;14.62;57.86;101326.03;5019157;28;20021;-53
2023/04/21 02:48:46;;;;;;;2.17;1.98;;;;;;;14.61;58.26;101321.66;5016349;28;20408;-51
2023/04/21 02:51:13;;;;;;;2.80;2.60;;;;;;;14.61;57.76;101329.69;5024920;28;20368;-52
2023/04/21 02:53:39;;;;;;;2.38;2.17;;;;;;;14.61;57.81;101333.22;5010392;28;20076;-52
2023/04/21 02:56:08;;;;;;;2.75;2.35;;;;;;;14.60;58.17;101326.16;5021178;28;20049;-51
2023/04/21 02:58:36;;;;;;;3.17;2.22;;;;;;;14.60;57.94;101319.94;5020377;28;20044;-51
2023/04/21 03:01:03;;;;;;;2.53;2.33;;;;;;;14.60;58.00;101318.13;5021528;28;20424;-51
2023/04/21 03:03:30;;;;;;;2.60;2.40;;;;;;;14.60;57.89;101317.25;5020376;28;20040;-51
2023/04/21 03:06:02;;;;;;;2.45;2.25;;;;;;;14.59;57.83;101303.00;5018284;28;20042;-52
2023/04/21 03:08:28;;;;;;;2.60;2.40;;;;;;;14.59;57.71;101315.56;5024713;28;20033;-53
2023/04/21 03:10:53;;;;;;;3.42;2.10;;;;;;;14.60;58.04;101318.13;5021187;28;20042;-51
2023/04/21 03:13:19;;;;;;;2.80;2.60;;;;;;;14.60;57.87;101319.94;5023878;28;20046;-52
2023/04/21 03:15:45;;;;;;;2.60;2.40;;;;;;;14.60;57.96;101314.56;5020153;28;20026;-52
2023/04/21 03:18:10;;;;;;;2.88;2.58;;;;;;;14.59;58.10;101319.09;5014905;28;20452;-52
2023/04/21 03:20:36;;;;;;;3.20;2.38;;;;;;;14.58;58.09;101309.34;5025671;28;20487;-52
2023/04/21 03:23:01;;;;;;;3.25;2.90;;;;;;;14.58;57.89;101314.72;5021213;28;20042;-52
2023/04/21 03:25:27;;;;;;;2.40;2.20;;;;;;;14.57;57.96;101323.69;5023719;28;20045;-50
2023/04/21 03:27:53;;;;;;;2.75;2.55;;;;;;;14.58;57.88;101313.81;5017364;28;20488;-52
2023/04/21 03:30:19;;;;;;;3.90;2.85;;;;;;;14.58;58.03;101317.38;5018681;28;20125;-50
2023/04/21 03:32:45;;;;;;;2.53;2.33;;;;;;;14.57;57.92;101309.44;5024901;28;20393;-51
2023/04/21 03:35:10;;;;;;;3.67;2.70;;;;;;;14.57;58.29;101309.44;5021010;28;20357;-51
2023/04/21 03:37:36;;;;;;;2.75;2.55;;;;;;;14.57;57.99;101307.63;5025283;28;20053;-51
2023/04/21 03:40:03;;;;;;;3.08;2.78;;;;;;;14.58;58.26;101313.81;5014089;28;20028;-52
2023/04/21 03:42:29;;;;;;;2.75;2.55;;;;;;;14.57;57.83;101307.63;5013909;28;20030;-50
2023/04/21 03:44:54;;;;;;;3.20;2.58;;;;;;;14.56;57.98;101303.19;5023488;28;20040;-51
2023/04/21 03:47:19;;;;;;;3.05;2.75;;;;;;;14.57;58.16;101309.44;5021307;28;20061;-52
2023/04/21 03:49:45;;;;;;;3.38;2.70;;;;;;;14.56;57.79;101313.91;5021568;28;20054;-52
2023/04/21 03:52:10;;;;;;;3.45;2.50;;;;;;;14.57;57.92;101312.97;5016171;28;20029;-50
2023/04/21 03:54:36;;;;;;;3.30;3.00;;;;;;;14.56;57.78;101313.06;5022138;28;20517;-51
2023/04/21 03:57:01;;;;;;;3.60;3.30;;;;;;;14.56;57.93;101310.38;5018989;28;20022;-52
2023/04/21 03:59:27;;;;;;;3.17;2.83;;;;;;;14.56;57.72;101311.22;5020428;28;20056;-52
2023/04/21 04:01:53;;;;;;;3.10;2.80;;;;;;;14.55;58.13;101314.03;5025222;28;20073;-53
2023/04/21 04:04:18;;;;;;;2.70;2.42;;;;;;;14.55;58.31;101309.53;5015169;28;20029;-52
2023/04/21 04:06:44;;;;;;;3.10;2.80;;;;;;;14.55;57.99;101306.00;5022609;28;20034;-51
2023/04/21 04:09:09;;;;;;;2.95;2.75;;;;;;;14.55;58.07;101308.69;5021193;28;20026;-52
2023/04/21 04:11:35;;;;;;;3.15;2.92;;;;;;;14.55;58.00;101314.03;5026454;28;20201;-52
2023/04/21 04:14:00;;;;;;;3.30;3.00;;;;;;;14.54;57.94;101309.63;5025568;28;20108;-52
2023/04/21 04:16:27;;;;;;;3.70;3.30;;;;;;;14.56;58.12;101315.72;5024788;28;20033;-52
2023/04/21 04:18:53;;;;;;;3.25;2.95;;;;;;;14.53;58.21;101310.63;5028257;28;20088;-52
2023/04/21 04:21:18;;;;;;;3.38;3.00;;;;;;;14.54;58.02;101312.31;5006415;28;20038;-52
2023/04/21 04:23:44;;;;;;;3.47;3.10;;;;;;;14.54;57.87;101306.94;5022963;28;20036;-51
2023/04/21 04:26:10;;;;;;;4.32;3.08;;;;;;;14.54;58.19;101312.31;5024663;28;20030;-52
2023/04/21 04:28:35;;;;;;;3.28;2.97;;;;;;;14.53;58.04;101310.63;5025366;28;20065;-50
2023/04/21 04:31:01;;;;;;;3.33;2.83;;;;;;;14.53;58.26;101311.47;5025700;28;20118;-52
2023/04/21 04:33:27;;;;;;;4.00;3.60;;;;;;;14.52;57.75;101309.75;5019547;28;20026;-52
2023/04/21 04:35:53;;;;;;;3.10;2.75;;;;;;;14.53;57.96;101313.31;5026092;28;20372;-52
2023/04/21 04:38:19;;;;;;;3.83;3.00;;;;;;;14.51;58.22;101312.53;5025391;28;20057;-52
2023/04/21 04:40:44;;;;;;;3.53;3.00;;;;;;;14.52;58.04;101308.91;5022124;28;20033;-51
2023/04/21 04:43:09;;;;;;;3.03;2.70;;;;;;;14.52;58.10;101303.53;5024865;28;20030;-52
2023/04/21 04:45:36;;;;;;;4.03;3.63;;;;;;;14.52;58.30;101315.09;5024236;28;20025;-52
2023/04/21 04:48:02;;;;;;;3.83;3.30;;;;;;;14.51;57.95;101315.22;5024157;28;20037;-52
2023/04/21 04:50:27;;;;;;;3.42;3.00;;;;;;;14.51;57.90;101313.41;5020672;28;20033;-51
2023/04/21 04:52:52;;;;;;;3.75;3.25;;;;;;;14.51;58.09;101312.53;5024422;28;20041;-52
2023/04/21 04:55:18;;;;;;;3.28;2.97;;;;;;;14.52;58.20;101315.09;5021354;28;20111;-51
2023/04/21 04:57:43;;;;;;;3.60;3.30;;;;;;;14.52;57.77;101319.59;5021785;28;20033;-52
2023/04/21 05:00:10;;;;;;;3.42;3.13;;;;;;;14.50;57.96;101318.88;5028337;28;20039;-51
2023/04/21 05:02:36;;;;;;;4.20;3.10;;;;;;;14.50;58.15;101321.53;5022888;28;20061;-51
2023/04/21 05:05:03;;;;;;;4.20;3.35;;;;;;;14.51;57.80;101317.88;5023832;28;20058;-52
2023/04/21 05:07:29;;;;;;;4.13;3.33;;;;;;;14.49;57.96;101320.69;5019315;28;20034;-51
2023/04/21 05:09:54;;;;;;;4.13;3.72;;;;;;;14.49;58.15;101315.34;5021633;28;20092;-51
2023/04/21 05:12:19;;;;;;;4.07;3.22;;;;;;;14.50;58.00;101324.22;5030208;28;20033;-51
2023/04/21 05:14:45;;;;;;;4.53;3.22;;;;;;;14.50;58.06;101326.91;5024053;28;20072;-51
2023/04/21 05:17:10;;;;;;;4.57;3.40;;;;;;;14.49;57.79;101331.41;5024596;28;20025;-52
2023/04/21 05:19:36;;;;;;;3.42;3.13;;;;;;;14.50;57.98;101324.22;5018415;28;20856;-52
2023/04/21 05:22:02;;;;;;;3.35;3.05;;;;;;;14.50;57.85;101326.91;5020836;28;20096;-52
2023/04/21 05:24:27;;;;;;;3.88;3.20;;;;;;;14.48;58.00;101335.91;5024208;28;20037;-52
2023/04/21 05:26:53;;;;;;;4.20;3.33;;;;;;;14.49;58.05;101331.41;5020666;28;20026;-51
2023/04/21 05:29:18;;;;;;;5.13;3.78;;;;;;;14.48;58.19;101335.91;5029043;28;20034;-51
2023/04/21 05:31:44;;;;;;;3.35;3.05;;;;;;;14.49;57.75;101336.78;5006648;28;20061;-52
2023/04/21 05:34:09;;;;;;;4.18;3.78;;;;;;;14.47;58.18;101339.56;5020762;28;20395;-52
2023/04/21 05:36:35;;;;;;;3.42;3.13;;;;;;;14.47;57.69;101349.44;5030047;28;20036;-52
2023/04/21 05:39:00;;;;;;;3.65;2.92;;;;;;;14.48;57.97;101343.09;5017572;28;20041;-51
2023/04/21 05:41:25;;;;;;;4.75;3.35;;;;;;;14.48;58.04;101348.44;5027158;28;20030;-52
2023/04/21 05:43:51;;;;;;;4.05;3.05;;;;;;;14.47;58.18;101344.91;5017929;28;20060;-51
2023/04/21 05:46:16;;;;;;;3.83;3.20;;;;;;;14.47;57.78;101350.28;5019532;28;20054;-52
2023/04/21 05:48:41;;;;;;;4.75;3.90;;;;;;;14.47;57.99;101341.41;5021758;28;20026;-51
2023/04/21 05:51:09;;;;;;;4.85;3.60;;;;;;;14.48;57.82;101348.44;5025853;28;20057;-52
2023/04/21 05:53:35;;;;;;;3.70;3.28;;;;;;;14.47;58.06;101350.28;5024411;28;20034;-49
2023/04/21 05:56:01;;;;;;;3.53;3.17;;;;;;;14.48;58.17;101351.13;5022843;28;20729;-51
2023/04/21 05:58:26;;;;;;;3.80;3.13;;;;;;;14.47;57.77;101355.63;5020040;28;20029;-50
2023/04/21 06:00:51;;;;;;;4.18;3.40;;;;;;;14.47;57.80;101350.28;5023852;28;20472;-51
2023/04/21 06:03:17;;;;;;;4.40;3.80;;;;;;;14.47;58.18;101350.28;5018100;28;21112;-52
2023/04/21 06:05:42;;;;;;;3.58;2.85;;;;;;;14.47;58.02;101344.91;5022972;28;20045;-51
2023/04/21 06:08:07;;;;;;;3.10;2.80;;;;;;;14.47;58.14;101350.28;5021358;28;20057;-51
2023/04/21 06:10:33;;;;;;;4.30;3.47;;;;;;;14.48;58.03;101348.44;5020761;28;20065;-52
2023/04/21 06:12:58;;;;;;;3.97;3.42;;;;;;;14.47;58.13;101339.56;5019313;28;20029;-52
2023/04/21 06:15:24;;;;;;;3.30;2.97;;;;;;;14.47;58.00;101344.91;5022435;28;20483;-52
2023/04/21 06:17:55;;;;;;;4.07;3.25;;;;;;;14.47;58.09;101336.88;5018935;28;20038;-50
2023/04/21 06:20:21;;;;;;;3.67;3.30;;;;;;;14.47;57.90;101342.25;5021022;28;20068;-52
2023/04/21 06:22:46;;;;;;;4.35;3.25;;;;;;;14.46;57.71;101335.16;5021909;28;20065;-52
2023/04/21 06:25:11;;;;;;;3.60;3.17;;;;;;;14.47;57.99;101339.56;5014555;28;20036;-52
2023/04/21 06:27:37;;;;;;;4.55;3.47;;;;;;;14.46;58.18;101340.50;5015732;28;20087;-51
2023/04/21 06:30:02;;;;;;;4.13;3.30;;;;;;;14.47;58.03;101341.41;5024877;28;20120;-52
2023/04/21 06:32:28;;;;;;;4.30;3.42;;;;;;;14.46;58.18;101345.03;5017030;28;20076;-52
2023/04/21 06:34:53;;;;;;;3.42;3.10;;;;;;;14.47;58.07;101342.25;5015820;28;20544;-52
2023/04/21 06:37:18;;;;;;;3.33;3.03;;;;;;;14.47;57.89;101342.25;5024622;28;20048;-51
2023/04/21 06:39:44;;;;;;;3.63;3.03;;;;;;;14.47;58.11;101339.56;5020980;28;20033;-49
2023/04/21 06:42:09;;;;;;;3.78;3.15;;;;;;;14.47;58.04;101350.28;5024509;28;20046;-52
2023/04/21 06:44:36;;;;;;;3.83;3.17;;;;;;;14.48;58.12;101351.13;5015214;28;20034;-52
2023/04/21 06:47:02;;;;;;;3.28;2.97;;;;;;;14.47;57.83;101349.44;5013405;28;20184;-52
2023/04/21 06:49:27;;;;;;;3.58;2.70;;;;;;;14.47;57.85;101350.28;5020404;28;20026;-51
2023/04/21 06:51:53;;;;;;;3.33;3.00;;;;;;;14.47;57.77;101349.44;5020930;28;20037;-52
2023/04/21 06:54:18;;;;;;;3.10;2.83;;;;;;;14.47;58.24;101350.28;5022613;28;20095;-52
2023/04/21 06:56:43;;;;;;;2.92;2.67;;;;;;;14.48;57.91;101345.78;5019811;28;20030;-52
2023/04/21 06:59:09;;;;;;;2.60;2.40;;;;;;;14.48;57.96;101345.78;5016785;28;20697;-52
2023/04/21 07:01:34;;;;;;;3.05;2.75;;;;;;;14.47;57.91;101347.59;5025156;28;20030;-52
2023/04/21 07:04:00;;;;;;;3.20;2.97;;;;;;;14.48;58.07;101348.44;5021215;28;20041;-52
2023/04/21 07:06:26;;;;;;;3.03;2.72;;;;;;;14.47;57.98;101336.88;5012560;28;20553;-50
2023/04/21 07:08:51;;;;;;;4.35;3.20;;;;;;;14.47;57.86;101344.91;5020122;28;20034;-51
2023/04/21 07:11:16;;;;;;;3.25;2.90;;;;;;;14.48;57.72;101343.09;5027262;28;20030;-50
2023/04/21 07:13:42;;;;;;;3.40;3.10;;;;;;;14.48;57.92;101345.78;4997384;28;20033;-51
2023/04/21 07:16:07;;;;;;;3.88;3.00;;;;;;;14.50;57.83;101348.34;5013234;28;20029;-50
2023/04/21 07:18:33;;;;;;;3.35;3.05;;;;;;;14.48;58.20;101349.28;5011102;28;20036;-52
2023/04/21 07:20:59;;;;;;;3.65;3.20;;;;;;;14.48;58.07;101340.41;5020429;28;20117;-51
2023/04/21 07:23:25;;;;;;;4.88;3.47;;;;;;;14.49;57.91;101355.53;5021189;28;20030;-52
2023/04/21 07:25:50;;;;;;;4.45;3.42;;;;;;;14.48;57.93;101346.63;5015469;28;20040;-51
2023/04/21 07:28:16;;;;;;;3.83;3.38;;;;;;;14.48;58.18;101346.63;5015830;28;20033;-51
2023/04/21 07:30:41;;;;;;;3.60;3.28;;;;;;;14.48;58.34;101351.97;5014002;28;20498;-50
2023/04/21 07:33:07;;;;;;;4.18;3.78;;;;;;;14.49;58.03;101350.19;5018548;28;20033;-51
2023/04/21 07:35:33;;;;;;;4.88;3.90;;;;;;;14.50;57.90;101337.63;5012427;28;20041;-52
2023/04/21 07:37:58;;;;;;;5.00;3.85;;;;;;;14.48;58.00;101333.22;5016663;28;20468;-52
2023/04/21 07:40:23;;;;;;;3.70;3.28;;;;;;;14.49;58.39;101336.78;5015643;28;20033;-52
2023/04/21 07:42:49;;;;;;;4.07;3.17;;;;;;;14.49;57.82;101336.78;5012927;28;20052;-50
2023/04/21 07:45:14;;;;;;;4.13;3.78;;;;;;;14.49;58.30;101342.13;5016351;28;20041;-50
2023/04/21 07:47:40;;;;;;;4.40;3.42;;;;;;;14.49;58.13;101334.09;5010110;28;20064;-52
2023/04/21 07:50:06;;;;;;;5.07;4.35;;;;;;;14.50;58.37;101332.25;5016754;28;20037;-52
2023/04/21 07:52:31;;;;;;;4.35;3.80;;;;;;;14.49;58.26;101328.75;5021534;28;20109;-51
2023/04/21 07:54:57;;;;;;;4.72;3.70;;;;;;;14.51;58.01;101333.97;5019575;28;20157;-51
2023/04/21 07:57:22;;;;;;;5.43;4.25;;;;;;;14.50;58.18;101335.78;5022061;28;20044;-53
2023/04/21 07:59:48;;;;;;;5.25;4.07;;;;;;;14.51;58.35;101333.97;5014318;28;20038;-51
2023/04/21 08:02:13;;;;;;;6.72;4.70;;;;;;;14.50;58.32;101334.94;5021035;28;20485;-51
2023/04/21 08:04:38;;;;;;;6.78;4.40;;;;;;;14.50;58.06;101332.25;5019654;28;20076;-48
2023/04/21 08:07:04;;;;;;;6.07;5.07;;;;;;;14.50;58.20;101325.06;5013298;28;20057;-52
2023/04/21 08:09:29;;;;;;;5.60;4.18;;;;;;;14.50;58.47;101332.25;5015994;28;20047;-52
2023/04/21 08:11:56;;;;;;;5.57;4.72;;;;;;;14.50;58.09;101322.41;5015685;28;20387;-51
2023/04/21 08:14:22;;;;;;;5.80;4.72;;;;;;;14.51;58.35;101325.91;5020880;28;20030;-51
2023/04/21 08:16:47;;;;;;;8.07;5.10;;;;;;;14.50;58.18;101322.41;5017858;28;20087;-52
2023/04/21 08:19:13;;;;;;;5.90;4.82;;;;;;;14.51;58.09;101318.75;5021931;28;20034;-52
2023/04/21 08:21:38;;;;;;;5.07;4.55;;;;;;;14.51;58.51;101320.56;5020121;28;20503;-52
2023/04/21 08:24:04;;;;;;;5.32;4.50;;;;;;;14.50;58.22;101325.06;5021189;28;20088;-51
2023/04/21 08:26:30;;;;;;;6.47;4.32;;;;;;;14.50;58.51;101322.41;5017744;28;20025;-52
2023/04/21 08:28:55;;;;;;;6.13;4.47;;;;;;;14.50;58.50;101321.53;5014315;28;20045;-50
2023/04/21 08:31:21;;;;;;;6.15;4.18;;;;;;;14.50;58.38;101326.91;5021526;28;20078;-52
2023/04/21 08:33:47;;;;;;;5.97;5.20;;;;;;;14.50;58.66;101322.41;5019565;28;20021;-52
2023/04/21 08:36:12;;;;;;;5.40;4.90;;;;;;;14.50;58.49;101310.84;5019285;28;20043;-52
2023/04/21 08:38:38;;;;;;;6.40;4.72;;;;;;;14.52;58.23;101319.59;5018769;28;20018;-52
2023/04/21 08:41:04;;;;;;;5.90;4.78;;;;;;;14.51;58.09;101317.88;5019124;28;20033;-51
2023/04/21 08:43:30;;;;;;;5.32;4.55;;;;;;;14.51;58.23;101317.88;5022693;28;20035;-52
2023/04/21 08:45:56;;;;;;;4.97;4.40;;;;;;;14.51;58.21;101316.09;5018842;28;20025;-52
2023/04/21 08:48:23;;;;;;;5.93;4.72;;;;;;;14.52;58.18;101316.94;5017446;28;20034;-50
2023/04/21 08:50:50;;;;;;;5.80;4.65;;;;;;;14.51;58.77;101316.09;5027642;28;20032;-52
2023/04/21 08:53:16;;;;;;;6.88;4.68;;;;;;;14.51;58.46;101326.81;5016649;28;20034;-52
2023/04/21 08:55:42;;;;;;;7.75;5.18;;;;;;;14.52;58.20;101311.56;5004212;28;20044;-49
2023/04/21 08:58:08;;;;;;;5.55;4.95;;;;;;;14.52;58.43;101320.47;5025166;28;20033;-52
2023/04/21 09:00:34;;;;;;;5.28;4.78;;;;;;;14.51;58.29;101313.41;5022012;28;20041;-52
2023/04/21 09:03:01;;;;;;;5.72;4.95;;;;;;;14.51;58.61;101316.09;5023048;28;20080;-52
2023/04/21 09:05:31;;;;;;;7.25;5.20;;;;;;;14.52;58.45;101314.25;5027433;28;20095;-52
2023/04/21 09:08:17;;;;;;;7.13;5.80;;;;;;;14.53;58.46;101308.78;5019846;28;20041;-52
2023/04/21 09:10:50;;;;;;;6.55;5.40;;;;;;;14.53;58.61;101308.78;5024114;28;20022;-52
2023/04/21 09:13:19;;;;;;;5.45;4.95;;;;;;;14.52;58.55;101304.38;5024565;28;20112;-52
2023/04/21 09:15:48;;;;;;;7.03;5.45;;;;;;;14.53;58.57;101307.94;5018936;28;20037;-52
2023/04/21 09:18:18;;;;;;;7.78;5.90;;;;;;;14.54;58.60;101306.94;5030427;28;20032;-52
2023/04/21 09:20:45;;;;;;;8.00;6.03;;;;;;;14.53;58.56;101311.47;5025703;28;20073;-51
2023/04/21 09:23:11;;;;;;;8.70;6.07;;;;;;;14.53;58.37;101299.91;5025416;28;20030;-52
2023/04/21 09:25:42;;;;;;;7.28;5.57;;;;;;;14.52;58.46;101293.66;5017273;28;20033;-52
2023/04/21 09:28:10;;;;;;;6.65;5.68;;;;;;;14.54;58.68;101296.22;5018666;28;20112;-52
2023/04/21 09:30:36;;;;;;;7.55;5.80;;;;;;;14.54;58.47;101298.91;5025620;28;20112;-52
2023/04/21 09:33:02;;;;;;;6.28;5.68;;;;;;;14.54;58.46;101310.47;5024353;28;20038;-51
2023/04/21 09:35:38;;;;;;;6.55;5.45;;;;;;;14.54;58.69;101297.09;5027716;28;20024;-53
2023/04/21 09:38:10;;;;;;;7.38;5.85;;;;;;;14.54;58.88;101301.59;5021088;28;20076;-51
2023/04/21 09:40:35;;;;;;;6.50;5.53;;;;;;;14.55;58.95;101300.63;5024192;28;20025;-51
2023/04/21 09:43:00;;;;;;;6.97;5.25;;;;;;;14.56;58.85;101299.66;5021411;28;20088;-52
2023/04/21 09:45:27;;;;;;;5.93;5.35;;;;;;;14.55;58.49;101297.97;5021684;28;20353;-51
2023/04/21 09:47:59;;;;;;;6.97;5.68;;;;;;;14.55;58.72;101298.81;5023505;28;20038;-51
2023/04/21 09:50:25;;;;;;;;;;;;;;;14.64;58.72;101302.66;5018719;28;20480;-52
2023/04/21 09:52:52;;;;;;;6.50;5.60;;;;;;;14.57;58.87;101293.38;5025181;28;19917;-52
2023/04/21 09:55:21;;;;;;;7.93;5.60;;;;;;;14.57;58.84;101299.59;5020132;28;20048;-52
2023/04/21 09:57:49;;;;;;;7.45;5.50;;;;;;;14.58;58.78;101295.06;5021722;28;20037;-52
2023/04/21 10:00:20;;;;;;;6.88;5.90;;;;;;;14.57;58.92;101296.91;5024282;28;20031;-52
2023/04/21 10:02:50;;;;;;;7.70;5.95;;;;;;;14.57;58.60;101294.22;5005507;28;20048;-52
2023/04/21 10:05:16;;;;;;;5.88;5.28;;;;;;;14.58;58.62;101298.63;5022856;28;20103;-52
2023/04/21 10:07:43;;;;;;;6.05;5.13;;;;;;;14.58;58.66;101289.72;5030413;28;20121;-51
2023/04/21 10:10:19;;;;;;;10.07;6.10;;;;;;;14.59;58.73;101289.59;5016524;28;20419;-52
2023/04/21 10:12:44;;;;;;;7.90;6.18;;;;;;;14.59;59.08;101283.41;5011947;28;20025;-50
2023/04/21 10:15:29;;;;;;;6.35;5.70;;;;;;;14.61;58.85;101281.44;5023459;28;20034;-52
2023/04/21 10:18:11;;;;;;;5.97;5.38;;;;;;;14.60;58.86;101285.97;5022667;28;20112;-51
2023/04/21 10:20:55;;;;;;;6.80;5.80;;;;;;;14.62;58.85;101277.78;5027881;28;20056;-52
2023/04/21 10:23:46;;;;;;;7.63;6.07;;;;;;;14.61;58.89;101268.06;5025920;28;20025;-52
2023/04/21 10:26:13;;;;;;;6.38;5.78;;;;;;;14.63;58.64;101266.13;5017174;28;20022;-51
2023/04/21 10:28:59;;;;;;;8.25;5.85;;;;;;;14.61;58.57;101268.91;5025622;28;20032;-50
2023/04/21 10:31:34;;;;;;;6.20;5.53;;;;;;;14.63;58.99;101261.59;5017543;28;20478;-50
2023/04/21 10:34:06;;;;;;;8.85;5.93;;;;;;;14.62;59.05;101254.53;5024710;28;20043;-52
2023/04/21 10:36:42;;;;;;;7.93;5.95;;;;;;;14.61;58.88;101255.50;5018765;28;20053;-52
2023/04/21 10:39:11;;;;;;;7.18;5.88;;;;;;;14.62;59.00;101245.63;5027136;28;20103;-52
2023/04/21 10:41:36;;;;;;;9.35;6.32;;;;;;;14.61;58.60;101239.44;5018918;28;20026;-52
2023/04/21 10:44:12;;;;;;;7.57;6.10;;;;;;;14.62;58.83;101242.94;5021530;28;20441;-50
2023/04/21 10:46:40;;;;;;;6.68;5.72;;;;;;;14.62;58.78;101238.47;5025400;28;20083;-50
2023/04/21 10:49:21;;;;;;;6.22;5.28;;;;;;;14.63;58.93;101236.63;5020167;28;20033;-51
2023/04/21 10:52:08;;;;;;;7.05;5.22;;;;;;;14.65;58.55;101237.38;5022134;28;20468;-48
2023/04/21 10:55:02;;;;;;;6.00;5.40;;;;;;;14.65;59.04;101229.34;5018935;28;20392;-49
2023/04/21 10:57:31;;;;;;;7.38;5.85;;;;;;;14.63;58.68;101228.59;5008812;28;20037;-52
2023/04/21 10:59:56;;;;;;;6.00;5.32;;;;;;;14.63;58.89;101220.56;5023744;28;20065;-51
2023/04/21 11:02:22;;;;;;;7.20;5.53;;;;;;;14.63;59.20;101224.09;5020391;28;20514;-52
2023/04/21 11:04:51;;;;;;;8.25;5.82;;;;;;;14.63;58.73;101221.41;5019145;28;20108;-50
2023/04/21 11:07:24;;;;;;;7.65;5.80;;;;;;;14.64;59.27;101211.53;5023144;28;20080;-52
2023/04/21 11:09:56;;;;;;;6.53;5.05;;;;;;;14.65;58.81;101207.91;5022849;28;20387;-52
2023/04/21 11:12:29;;;;;;;6.45;5.60;;;;;;;14.64;58.75;101203.50;5021140;28;20438;-49
2023/04/21 11:14:55;;;;;;;7.18;5.70;;;;;;;14.66;58.83;101202.44;5015329;28;20017;-52
2023/04/21 11:17:22;;;;;;;7.35;5.82;;;;;;;14.66;58.81;101194.38;5019515;28;20609;-51
2023/04/21 11:19:53;;;;;;;5.68;5.15;;;;;;;14.66;58.78;101188.19;5020628;28;20542;-51
2023/04/21 11:22:21;;;;;;;7.10;5.80;;;;;;;14.68;58.71;101190.72;5026398;28;20426;-52